Time;durP1;ratioP1;P1;durP2;ratioP2;P2;SDS_P1;SDS_P2;PMS_P1;PMS_P2;Temp;Humidity;BMP_temperature;BMP_pressure;BME280_temperature;BME280_humidity;BME280_pressure;Samples;Min_cycle;Max_cycle;Signal;HPM_P1;HPM_P2
2022/03/15 00:00:22;;;;;;;15.32;6.43;;;4.20;99.90;;;;;;4995727;28;20073;-84
2022/03/15 00:02:49;;;;;;;15.20;7.43;;;4.10;99.90;;;;;;5004272;28;20411;-85
2022/03/15 00:05:18;;;;;;;14.63;6.72;;;4.10;99.90;;;;;;5009207;28;20046;-84
2022/03/15 00:07:44;;;;;;;15.32;6.88;;;4.10;99.90;;;;;;5005812;28;20044;-84
2022/03/15 00:10:15;;;;;;;19.23;7.47;;;4.20;99.90;;;;;;5009553;28;20049;-84
2022/03/15 00:12:44;;;;;;;23.40;7.93;;;4.20;99.90;;;;;;4997184;28;20149;-85
2022/03/15 00:15:11;;;;;;;19.83;8.25;;;4.10;99.90;;;;;;4997833;28;20554;-85
2022/03/15 00:17:38;;;;;;;15.48;7.63;;;4.10;99.90;;;;;;5004173;28;20042;-85
2022/03/15 00:20:05;;;;;;;16.65;7.53;;;4.20;99.90;;;;;;5008325;28;20049;-84
2022/03/15 00:22:35;;;;;;;19.13;7.57;;;4.10;99.90;;;;;;5003740;28;20033;-85
2022/03/15 00:25:03;;;;;;;13.82;7.50;;;4.10;99.90;;;;;;4992656;28;20496;-85
2022/03/15 00:27:29;;;;;;;16.90;7.80;;;4.10;99.90;;;;;;4999007;28;20034;-85
2022/03/15 00:29:54;;;;;;;16.08;7.45;;;4.10;99.90;;;;;;4994473;28;20161;-84
2022/03/15 00:32:20;;;;;;;20.05;7.97;;;4.00;99.90;;;;;;4992238;28;20068;-85
2022/03/15 00:34:49;;;;;;;16.27;7.45;;;4.00;99.90;;;;;;5007951;28;20042;-85
2022/03/15 00:37:15;;;;;;;17.20;7.88;;;4.00;99.90;;;;;;5001255;28;20484;-84
2022/03/15 00:39:42;;;;;;;17.30;7.43;;;4.00;99.90;;;;;;4994891;28;20096;-84
2022/03/15 00:42:08;;;;;;;19.05;7.70;;;3.90;99.90;;;;;;4987370;28;20038;-85
2022/03/15 00:44:34;;;;;;;12.90;7.22;;;3.90;99.90;;;;;;4974340;28;20039;-84
2022/03/15 00:46:59;;;;;;;15.73;7.13;;;3.90;99.90;;;;;;4981317;28;20136;-84
2022/03/15 00:49:26;;;;;;;15.52;7.97;;;3.80;99.90;;;;;;4986265;28;20180;-84
2022/03/15 00:51:52;;;;;;;16.92;7.00;;;3.80;99.90;;;;;;4973869;28;20046;-84
2022/03/15 00:54:17;;;;;;;15.32;6.70;;;3.80;99.90;;;;;;4980935;28;20042;-84
2022/03/15 00:56:43;;;;;;;20.42;7.07;;;3.70;99.90;;;;;;4988332;28;20030;-84
2022/03/15 00:59:09;;;;;;;16.15;7.32;;;3.70;99.90;;;;;;4997609;28;20046;-84
2022/03/15 01:01:36;;;;;;;19.65;7.60;;;3.70;99.90;;;;;;4995539;28;20400;-85
2022/03/15 01:04:02;;;;;;;18.02;8.63;;;3.60;99.90;;;;;;5006001;28;20403;-85
2022/03/15 01:06:28;;;;;;;15.98;8.98;;;3.70;99.90;;;;;;4990588;28;20046;-85
2022/03/15 01:08:54;;;;;;;15.98;8.35;;;3.60;99.90;;;;;;5001338;28;20042;-84
2022/03/15 01:11:20;;;;;;;17.13;8.45;;;3.60;99.90;;;;;;4995303;28;20046;-85
2022/03/15 01:13:45;;;;;;;16.73;8.77;;;3.60;99.90;;;;;;5000551;28;20072;-83
2022/03/15 01:16:11;;;;;;;13.48;7.47;;;3.60;99.90;;;;;;4991094;28;20117;-84
2022/03/15 01:18:37;;;;;;;19.58;8.35;;;3.50;99.90;;;;;;4995334;28;20041;-85
2022/03/15 01:21:03;;;;;;;16.05;8.15;;;3.50;99.90;;;;;;5008323;28;20049;-85
2022/03/15 01:23:29;;;;;;;16.27;8.27;;;3.60;99.90;;;;;;5003773;28;20554;-85
2022/03/15 01:25:55;;;;;;;16.67;8.30;;;3.50;99.90;;;;;;4991663;28;20130;-85
2022/03/15 01:28:21;;;;;;;24.00;8.57;;;3.50;99.90;;;;;;5001405;28;20057;-84
2022/03/15 01:30:46;;;;;;;16.27;8.10;;;3.50;99.90;;;;;;5004351;28;20046;-85
2022/03/15 01:33:12;;;;;;;17.60;8.63;;;3.50;99.90;;;;;;5001681;28;20077;-84
2022/03/15 01:35:38;;;;;;;19.90;9.13;;;3.60;99.90;;;;;;4993462;28;20042;-84
2022/03/15 01:38:03;;;;;;;20.27;8.70;;;3.50;99.90;;;;;;4996855;28;20038;-84
2022/03/15 01:40:29;;;;;;;16.85;8.50;;;3.50;99.90;;;;;;5005243;28;20049;-85
2022/03/15 01:42:55;;;;;;;15.23;9.27;;;3.50;99.90;;;;;;5001852;28;20041;-85
2022/03/15 01:45:30;;;;;;;17.05;9.43;;;3.50;99.90;;;;;;5002403;28;20042;-84
2022/03/15 01:47:56;;;;;;;21.20;10.43;;;3.60;99.90;;;;;;4997431;28;20039;-84
2022/03/15 01:50:22;;;;;;;18.20;10.93;;;3.50;99.90;;;;;;4995588;28;20057;-85
2022/03/15 01:52:48;;;;;;;20.77;10.45;;;3.50;99.90;;;;;;4993242;28;20357;-84
2022/03/15 01:55:14;;;;;;;23.13;11.88;;;3.50;99.90;;;;;;4995774;28;20145;-83
2022/03/15 01:57:40;;;;;;;26.65;11.18;;;3.50;99.90;;;;;;5000304;28;20148;-84
2022/03/15 02:00:06;;;;;;;20.15;10.68;;;3.70;99.90;;;;;;5000568;28;20128;-85
2022/03/15 02:02:32;;;;;;;25.00;11.30;;;3.50;99.90;;;;;;4991604;28;20034;-85
2022/03/15 02:04:58;;;;;;;20.23;11.65;;;3.60;99.90;;;;;;5000568;28;20103;-84
2022/03/15 02:07:24;;;;;;;21.40;11.35;;;3.70;99.90;;;;;;5007331;28;20046;-84
2022/03/15 02:09:51;;;;;;;25.77;12.40;;;3.60;99.90;;;;;;4998901;28;20529;-85
2022/03/15 02:12:17;;;;;;;20.52;12.20;;;3.60;99.90;;;;;;4990105;28;20077;-84
2022/03/15 02:14:43;;;;;;;23.27;12.27;;;3.70;99.90;;;;;;4995067;28;20034;-84
2022/03/15 02:17:08;;;;;;;26.80;12.85;;;3.70;99.90;;;;;;4991268;28;20046;-83
2022/03/15 02:19:36;;;;;;;24.27;13.20;;;3.80;99.90;;;;;;4995646;28;20120;-84
2022/03/15 02:22:02;;;;;;;25.60;12.80;;;3.70;99.90;;;;;;5008744;28;20042;-84
2022/03/15 02:24:28;;;;;;;21.73;12.27;;;3.80;99.90;;;;;;5007736;28;20120;-85
2022/03/15 02:26:55;;;;;;;21.42;12.85;;;3.90;99.90;;;;;;5006551;28;20038;-84
2022/03/15 02:29:21;;;;;;;19.77;12.27;;;4.00;99.90;;;;;;5003703;28;20049;-84
2022/03/15 02:31:48;;;;;;;22.60;12.55;;;3.90;99.90;;;;;;5006199;28;20038;-85
2022/03/15 02:34:14;;;;;;;19.80;11.88;;;4.00;99.90;;;;;;5000173;28;20050;-85
2022/03/15 02:36:39;;;;;;;21.67;12.20;;;4.00;99.90;;;;;;4998449;28;20116;-85
2022/03/15 02:39:05;;;;;;;23.60;12.52;;;4.00;99.90;;;;;;4996828;28;20140;-84
2022/03/15 02:41:31;;;;;;;25.33;12.95;;;4.00;99.90;;;;;;5010544;28;20022;-84
2022/03/15 02:43:56;;;;;;;22.27;13.18;;;4.10;99.90;;;;;;4993264;28;20121;-83
2022/03/15 02:46:29;;;;;;;24.23;12.15;;;4.10;99.90;;;;;;4996801;28;20080;-85
2022/03/15 02:48:55;;;;;;;18.38;11.93;;;4.10;99.90;;;;;;4992100;28;20173;-84
2022/03/15 02:51:21;;;;;;;19.45;12.35;;;4.20;99.90;;;;;;5006485;28;20129;-83
2022/03/15 02:53:47;;;;;;;19.90;11.30;;;4.20;99.90;;;;;;5009055;28;20042;-84
2022/03/15 02:56:13;;;;;;;24.30;12.15;;;4.20;99.90;;;;;;5012116;28;20034;-83
2022/03/15 02:58:39;;;;;;;16.73;10.85;;;4.20;99.90;;;;;;5018281;28;20038;-85
2022/03/15 03:01:05;;;;;;;20.73;12.57;;;4.20;99.90;;;;;;5002361;28;20046;-83
2022/03/15 03:03:30;;;;;;;26.10;12.48;;;4.20;99.90;;;;;;5008847;28;20042;-83
2022/03/15 03:05:56;;;;;;;24.15;13.13;;;4.30;99.90;;;;;;5008031;28;20400;-85
2022/03/15 03:08:25;;;;;;;24.00;13.05;;;4.30;99.90;;;;;;5000128;28;20512;-84
2022/03/15 03:10:52;;;;;;;24.33;13.68;;;4.30;99.90;;;;;;5006817;28;20137;-84
2022/03/15 03:13:18;;;;;;;25.67;14.65;;;4.40;99.90;;;;;;4997517;28;20033;-84
2022/03/15 03:15:44;;;;;;;25.10;14.32;;;4.50;99.90;;;;;;5003350;28;20493;-85
2022/03/15 03:18:09;;;;;;;28.83;14.45;;;4.40;99.90;;;;;;4997617;28;20046;-84
2022/03/15 03:20:35;;;;;;;25.52;14.40;;;4.40;99.90;;;;;;5006286;28;20037;-85
2022/03/15 03:23:01;;;;;;;23.52;13.40;;;4.40;99.90;;;;;;5002077;28;20068;-85
2022/03/15 03:25:28;;;;;;;27.73;13.60;;;4.50;99.90;;;;;;4996062;28;20113;-84
2022/03/15 03:27:54;;;;;;;24.65;13.25;;;4.50;99.90;;;;;;4993765;28;20398;-84
2022/03/15 03:30:19;;;;;;;22.35;14.02;;;4.50;99.90;;;;;;5002145;28;20049;-85
2022/03/15 03:32:45;;;;;;;23.17;14.32;;;4.40;99.90;;;;;;5009642;28;20121;-84
2022/03/15 03:35:11;;;;;;;24.63;14.77;;;4.50;99.90;;;;;;4997164;28;20042;-85
2022/03/15 03:37:36;;;;;;;27.25;14.23;;;4.50;99.90;;;;;;5008485;28;20130;-84
2022/03/15 03:40:07;;;;;;;22.40;13.77;;;4.50;99.90;;;;;;5001971;28;20066;-84
2022/03/15 03:42:36;;;;;;;23.45;13.68;;;4.50;99.90;;;;;;5008152;28;20060;-85
2022/03/15 03:45:03;;;;;;;23.80;13.45;;;4.50;99.90;;;;;;4994697;28;20042;-85
2022/03/15 03:47:29;;;;;;;21.17;13.75;;;4.60;99.90;;;;;;5002592;28;20034;-84
2022/03/15 03:49:55;;;;;;;22.77;12.95;;;4.60;99.90;;;;;;5004193;28;20049;-84
2022/03/15 03:52:20;;;;;;;17.98;12.40;;;4.60;99.90;;;;;;4996553;28;20038;-82
2022/03/15 03:54:46;;;;;;;21.25;12.38;;;4.60;99.90;;;;;;5008975;28;20069;-85
2022/03/15 03:57:11;;;;;;;19.63;11.82;;;4.60;99.90;;;;;;4996495;28;20042;-84
2022/03/15 03:59:37;;;;;;;18.85;12.13;;;4.50;99.90;;;;;;4993797;28;20463;-84
2022/03/15 04:02:03;;;;;;;18.40;11.45;;;4.50;99.90;;;;;;4991930;28;20049;-83
2022/03/15 04:04:29;;;;;;;21.83;12.23;;;4.50;99.90;;;;;;4991769;28;20129;-83
2022/03/15 04:06:55;;;;;;;18.80;11.60;;;4.50;99.90;;;;;;4993130;28;20121;-84
2022/03/15 04:09:22;;;;;;;20.02;11.63;;;4.50;99.90;;;;;;4993112;28;20049;-83
2022/03/15 04:11:49;;;;;;;22.75;11.88;;;4.50;99.90;;;;;;4993048;28;20046;-83
2022/03/15 04:14:15;;;;;;;25.33;13.05;;;4.50;99.90;;;;;;4992702;28;20468;-83
2022/03/15 04:16:42;;;;;;;23.73;14.32;;;4.50;99.90;;;;;;4991700;28;20058;-84
2022/03/15 04:19:08;;;;;;;30.40;14.43;;;4.60;99.90;;;;;;4992759;28;20030;-83
2022/03/15 04:21:34;;;;;;;26.17;14.13;;;4.70;99.90;;;;;;4992960;28;20113;-84
2022/03/15 04:24:00;;;;;;;27.77;15.13;;;4.70;99.90;;;;;;4991529;28;20129;-83
2022/03/15 04:26:26;;;;;;;27.02;14.73;;;4.80;99.90;;;;;;4991550;28;20078;-83
2022/03/15 04:28:53;;;;;;;29.25;14.63;;;4.80;99.90;;;;;;4992922;28;20038;-84
2022/03/15 04:31:18;;;;;;;27.17;14.55;;;4.90;99.90;;;;;;4991514;28;20073;-85
2022/03/15 04:33:44;;;;;;;22.70;14.35;;;4.90;99.90;;;;;;4992418;28;20092;-85
2022/03/15 04:36:11;;;;;;;30.40;15.15;;;4.90;99.90;;;;;;4992727;28;20042;-85
2022/03/15 04:38:36;;;;;;;27.20;13.77;;;5.00;99.90;;;;;;4991371;28;20061;-85
2022/03/15 04:41:05;;;;;;;31.13;14.50;;;5.00;99.90;;;;;;4991217;28;20043;-84
2022/03/15 04:43:31;;;;;;;31.30;15.02;;;5.00;99.90;;;;;;4990572;28;20050;-85
2022/03/15 04:45:57;;;;;;;25.00;14.90;;;5.00;99.90;;;;;;4990992;28;20423;-85
2022/03/15 04:48:23;;;;;;;26.00;15.02;;;5.00;99.90;;;;;;4991977;28;20038;-85
2022/03/15 04:50:49;;;;;;;27.23;14.13;;;5.00;99.90;;;;;;4991508;28;20575;-85
2022/03/15 04:53:15;;;;;;;31.67;14.73;;;5.00;99.90;;;;;;4992349;28;20153;-85
2022/03/15 04:55:40;;;;;;;27.90;15.93;;;5.00;99.90;;;;;;4992212;28;20042;-85
2022/03/15 04:58:06;;;;;;;29.40;15.45;;;5.00;99.90;;;;;;4992430;28;20042;-85
2022/03/15 05:00:32;;;;;;;26.92;14.82;;;5.00;99.90;;;;;;4991111;28;20042;-85
2022/03/15 05:02:57;;;;;;;27.58;15.02;;;5.00;99.90;;;;;;4991389;28;20438;-85
2022/03/15 05:05:23;;;;;;;30.75;14.52;;;5.00;99.90;;;;;;4990824;28;20077;-84
2022/03/15 05:07:49;;;;;;;26.25;14.98;;;5.00;99.90;;;;;;4990913;28;20169;-85
2022/03/15 05:13:00;;;;;;;30.70;15.65;;;5.00;99.90;;;;;;4992368;28;20048;-85
2022/03/15 05:15:26;;;;;;;24.38;14.32;;;4.90;99.90;;;;;;4990722;28;20050;-85
2022/03/15 05:17:51;;;;;;;26.60;14.10;;;4.90;99.90;;;;;;4992219;28;20409;-85
2022/03/15 05:20:18;;;;;;;28.00;15.02;;;5.00;99.90;;;;;;4990908;28;20046;-85
2022/03/15 05:22:44;;;;;;;25.02;14.40;;;4.90;99.90;;;;;;4990783;28;20117;-84
2022/03/15 05:25:11;;;;;;;25.30;13.40;;;4.90;99.90;;;;;;4990542;28;20134;-84
2022/03/15 05:27:37;;;;;;;28.05;14.60;;;4.80;99.90;;;;;;4990817;28;20042;-85
2022/03/15 05:30:04;;;;;;;30.02;14.30;;;4.80;99.90;;;;;;4992161;28;20042;-85
2022/03/15 05:32:30;;;;;;;27.80;15.05;;;4.80;99.90;;;;;;4991108;28;20046;-85
2022/03/15 05:34:56;;;;;;;32.85;14.30;;;4.80;99.90;;;;;;4991906;28;20438;-84
2022/03/15 05:37:22;;;;;;;25.33;14.43;;;4.80;99.90;;;;;;4992074;28;20133;-85
2022/03/15 05:39:48;;;;;;;30.15;15.65;;;4.80;99.90;;;;;;4991957;28;20222;-85
2022/03/15 05:42:13;;;;;;;26.67;14.63;;;4.80;99.90;;;;;;4990710;28;20042;-85
2022/03/15 05:44:40;;;;;;;26.42;14.43;;;4.70;99.90;;;;;;4990445;28;20034;-85
2022/03/15 05:47:06;;;;;;;30.85;15.50;;;4.70;99.90;;;;;;4991769;28;20038;-85
2022/03/15 05:49:32;;;;;;;30.85;15.23;;;4.80;99.90;;;;;;4991901;28;20042;-85
2022/03/15 05:51:58;;;;;;;26.23;15.32;;;4.80;99.90;;;;;;4990527;28;20038;-85
2022/03/15 05:54:23;;;;;;;27.40;15.63;;;4.70;99.90;;;;;;4991731;28;20051;-85
2022/03/15 05:56:49;;;;;;;34.28;16.70;;;4.70;99.90;;;;;;4990500;28;20045;-84
2022/03/15 05:59:14;;;;;;;30.13;16.08;;;4.70;99.90;;;;;;4991272;28;20035;-84
2022/03/15 06:01:40;;;;;;;30.15;15.98;;;4.70;99.90;;;;;;4995608;28;20038;-85
2022/03/15 06:04:07;;;;;;;33.85;16.65;;;4.70;99.90;;;;;;4994833;28;20591;-85
2022/03/15 06:06:33;;;;;;;27.38;15.30;;;4.70;99.90;;;;;;4993870;28;20094;-83
2022/03/15 06:08:59;;;;;;;24.60;15.13;;;4.60;99.90;;;;;;4994009;28;20043;-84
2022/03/15 06:11:25;;;;;;;30.33;16.45;;;4.70;99.90;;;;;;4994222;28;20412;-83
2022/03/15 06:13:50;;;;;;;32.35;16.42;;;4.70;99.90;;;;;;4995006;28;20065;-82
2022/03/15 06:16:16;;;;;;;29.80;17.10;;;4.70;99.90;;;;;;4995066;28;20034;-84
2022/03/15 06:18:41;;;;;;;35.88;16.85;;;4.70;99.90;;;;;;4993436;28;20068;-84
2022/03/15 06:21:07;;;;;;;33.67;18.17;;;4.80;99.90;;;;;;4992632;28;20050;-82
2022/03/15 06:23:33;;;;;;;35.13;18.30;;;4.70;99.90;;;;;;4993772;28;20042;-84
2022/03/15 06:25:58;;;;;;;32.28;17.23;;;4.80;99.90;;;;;;4994709;28;20471;-84
2022/03/15 06:28:24;;;;;;;30.50;18.40;;;4.80;99.90;;;;;;4994803;28;20041;-83
2022/03/15 06:30:49;;;;;;;30.85;17.55;;;4.80;99.90;;;;;;4993670;28;20042;-84
2022/03/15 06:33:15;;;;;;;33.30;18.45;;;4.90;99.90;;;;;;4993578;28;20086;-84
2022/03/15 06:35:45;;;;;;;33.45;18.10;;;4.90;99.90;;;;;;4991768;28;20046;-84
2022/03/15 06:38:11;;;;;;;35.15;18.88;;;4.90;99.90;;;;;;4993268;28;20046;-84
2022/03/15 06:40:41;;;;;;;35.42;18.73;;;5.00;99.90;;;;;;4993463;28;20041;-84
2022/03/15 06:43:09;;;;;;;34.47;18.85;;;5.00;99.90;;;;;;4994698;28;20100;-84
2022/03/15 06:45:35;;;;;;;33.63;18.25;;;5.10;99.90;;;;;;4991929;28;20050;-84
2022/03/15 06:48:00;;;;;;;38.60;20.50;;;5.10;99.90;;;;;;4994491;28;20049;-84
2022/03/15 06:50:26;;;;;;;35.50;20.48;;;5.10;99.90;;;;;;4993061;28;20053;-84
2022/03/15 06:52:51;;;;;;;36.15;21.10;;;5.10;99.90;;;;;;4994410;28;20038;-84
2022/03/15 06:55:17;;;;;;;43.10;21.65;;;5.20;99.90;;;;;;4992927;28;20077;-84
2022/03/15 06:57:43;;;;;;;31.48;19.63;;;5.20;99.90;;;;;;4997410;28;20037;-83
2022/03/15 07:00:11;;;;;;;38.15;20.27;;;5.20;99.90;;;;;;4996604;28;20070;-84
2022/03/15 07:02:37;;;;;;;34.85;19.70;;;5.30;99.90;;;;;;4994426;28;20113;-85
2022/03/15 07:05:03;;;;;;;44.38;21.58;;;5.30;99.90;;;;;;4992823;28;20831;-84
2022/03/15 07:07:29;;;;;;;33.17;20.42;;;5.30;99.90;;;;;;4992930;28;20504;-84
2022/03/15 07:09:55;;;;;;;36.60;21.25;;;5.40;99.90;;;;;;4993137;28;20130;-83
2022/03/15 07:12:22;;;;;;;38.67;20.08;;;5.40;99.90;;;;;;4992259;28;20057;-83
2022/03/15 07:14:49;;;;;;;37.35;21.05;;;5.40;99.90;;;;;;4993924;28;20039;-84
2022/03/15 07:17:15;;;;;;;38.83;20.70;;;5.40;99.90;;;;;;4993989;28;20042;-84
2022/03/15 07:19:41;;;;;;;35.80;20.92;;;5.50;99.90;;;;;;4993910;28;20378;-84
2022/03/15 07:22:06;;;;;;;32.75;20.23;;;5.50;99.90;;;;;;4992789;28;20035;-84
2022/03/15 07:24:33;;;;;;;37.85;21.48;;;5.50;99.90;;;;;;4992544;28;20590;-84
2022/03/15 07:26:59;;;;;;;40.30;22.52;;;5.60;99.90;;;;;;4991958;28;20038;-84
2022/03/15 07:29:24;;;;;;;34.92;20.55;;;5.60;99.90;;;;;;4993268;28;20511;-84
2022/03/15 07:31:50;;;;;;;33.83;21.15;;;5.60;99.90;;;;;;4993570;28;20038;-84
2022/03/15 07:34:16;;;;;;;42.00;22.08;;;5.70;99.90;;;;;;4993583;28;20456;-82
2022/03/15 07:36:41;;;;;;;41.20;22.27;;;5.70;99.90;;;;;;4993701;28;20081;-84
2022/03/15 07:39:07;;;;;;;41.67;22.42;;;5.70;99.90;;;;;;4993742;28;20034;-84
2022/03/15 07:41:34;;;;;;;36.72;21.60;;;5.80;99.90;;;;;;4992109;28;20101;-84
2022/03/15 07:44:00;;;;;;;38.67;22.23;;;5.80;99.90;;;;;;4993563;28;20113;-84
2022/03/15 07:46:25;;;;;;;39.70;22.33;;;5.80;99.90;;;;;;4992830;28;20653;-84
2022/03/15 07:48:51;;;;;;;40.55;22.30;;;5.80;99.90;;;;;;4992171;28;20101;-84
2022/03/15 07:51:17;;;;;;;42.45;24.15;;;5.90;99.90;;;;;;4993425;28;20081;-84
2022/03/15 07:53:42;;;;;;;40.67;23.48;;;5.90;99.90;;;;;;4991961;28;20046;-82
2022/03/15 07:56:08;;;;;;;41.50;23.95;;;5.90;99.90;;;;;;4993127;28;20469;-84
2022/03/15 07:58:34;;;;;;;41.42;24.35;;;6.00;99.90;;;;;;4993082;28;20038;-84
2022/03/15 08:01:00;;;;;;;44.45;23.88;;;6.00;99.90;;;;;;4991710;28;20416;-84
2022/03/15 08:03:26;;;;;;;47.88;25.13;;;6.10;99.90;;;;;;4993048;28;20077;-83
2022/03/15 08:05:52;;;;;;;43.67;24.23;;;6.10;99.90;;;;;;4991917;28;20097;-84
2022/03/15 08:08:18;;;;;;;41.40;24.20;;;6.20;99.90;;;;;;4992759;28;20070;-84
2022/03/15 08:10:44;;;;;;;44.53;23.77;;;6.20;99.90;;;;;;4991074;28;20054;-84
2022/03/15 08:13:10;;;;;;;46.78;24.77;;;6.30;99.90;;;;;;4991954;28;20053;-84
2022/03/15 08:15:35;;;;;;;42.03;24.48;;;6.30;99.90;;;;;;4992808;28;20507;-83
2022/03/15 08:18:05;;;;;;;40.10;23.85;;;6.30;99.90;;;;;;4990992;28;20046;-82
2022/03/15 08:20:33;;;;;;;47.67;25.30;;;6.30;99.90;;;;;;4992804;28;20080;-84
2022/03/15 08:23:00;;;;;;;44.33;25.50;;;6.40;99.90;;;;;;4991619;28;20042;-84
2022/03/15 08:25:26;;;;;;;47.65;25.88;;;6.40;99.90;;;;;;4993543;28;20034;-83
2022/03/15 08:27:52;;;;;;;44.92;26.27;;;6.50;99.90;;;;;;4991372;28;20046;-83
2022/03/15 08:30:18;;;;;;;40.40;24.52;;;6.50;99.90;;;;;;4991438;28;20050;-83
2022/03/15 08:32:43;;;;;;;43.25;25.23;;;6.60;99.90;;;;;;4991396;28;20125;-83
2022/03/15 08:35:09;;;;;;;42.38;26.33;;;6.60;99.90;;;;;;4991529;28;20133;-84
2022/03/15 08:37:36;;;;;;;43.42;26.00;;;6.70;99.90;;;;;;4990616;28;20121;-84
2022/03/15 08:40:03;;;;;;;42.35;26.65;;;6.70;99.90;;;;;;4991005;28;20056;-83
2022/03/15 08:42:28;;;;;;;47.28;26.05;;;6.80;99.90;;;;;;4990922;28;20093;-83
2022/03/15 08:44:54;;;;;;;41.80;25.77;;;6.90;99.90;;;;;;4991447;28;20031;-83
2022/03/15 08:47:20;;;;;;;46.67;27.27;;;7.00;99.90;;;;;;4992196;28;20042;-84
2022/03/15 08:49:45;;;;;;;48.25;27.08;;;7.00;99.90;;;;;;4991031;28;20129;-83
2022/03/15 08:52:11;;;;;;;41.25;25.88;;;7.10;99.90;;;;;;4991294;28;20054;-83
2022/03/15 08:54:38;;;;;;;42.22;25.75;;;7.20;99.90;;;;;;4991169;28;20050;-84
2022/03/15 08:57:04;;;;;;;45.50;27.13;;;7.20;99.90;;;;;;4992154;28;20496;-84
2022/03/15 08:59:30;;;;;;;43.75;25.88;;;7.30;99.90;;;;;;4991992;28;20100;-84
2022/03/15 09:01:56;;;;;;;46.47;27.05;;;7.30;99.90;;;;;;4990930;28;20121;-83
2022/03/15 09:04:22;;;;;;;44.85;26.70;;;7.40;99.90;;;;;;4990424;28;20547;-84
2022/03/15 09:06:48;;;;;;;41.10;26.90;;;7.40;99.90;;;;;;4990393;28;20042;-83
2022/03/15 09:09:18;;;;;;;41.80;26.33;;;7.50;99.90;;;;;;4989595;28;20057;-84
2022/03/15 09:11:45;;;;;;;42.42;26.42;;;7.50;99.90;;;;;;4992105;28;20045;-84
2022/03/15 09:14:11;;;;;;;43.35;26.23;;;7.60;99.90;;;;;;4991941;28;20058;-84
2022/03/15 09:16:37;;;;;;;39.83;25.60;;;7.60;99.90;;;;;;4992163;28;20046;-83
2022/03/15 09:19:02;;;;;;;42.65;25.75;;;7.70;99.90;;;;;;4992038;28;20046;-84
2022/03/15 09:21:28;;;;;;;45.58;26.05;;;7.70;99.90;;;;;;4990682;28;20427;-83
2022/03/15 09:23:57;;;;;;;42.58;25.38;;;7.70;99.90;;;;;;4990759;28;20527;-83
2022/03/15 09:26:24;;;;;;;41.65;25.83;;;7.70;99.90;;;;;;4990771;28;20496;-83
2022/03/15 09:28:50;;;;;;;41.92;25.48;;;7.80;99.90;;;;;;4990680;28;20103;-83
2022/03/15 09:31:16;;;;;;;40.40;26.05;;;7.80;99.90;;;;;;4991071;28;20046;-84
2022/03/15 09:33:43;;;;;;;43.97;25.65;;;7.90;99.90;;;;;;4990655;28;20046;-81
2022/03/15 09:36:09;;;;;;;41.55;27.23;;;7.90;99.90;;;;;;4985953;28;20078;-84
2022/03/15 09:38:35;;;;;;;40.95;26.33;;;7.90;99.90;;;;;;4975807;28;20405;-83
2022/03/15 09:41:05;;;;;;;39.45;24.42;;;8.00;99.90;;;;;;4975678;28;20050;-83
2022/03/15 09:43:38;;;;;;;38.95;24.67;;;8.00;99.90;;;;;;4974356;28;20046;-83
2022/03/15 09:46:05;;;;;;;37.92;24.67;;;8.10;99.90;;;;;;4976012;28;20043;-84
2022/03/15 09:48:31;;;;;;;44.53;24.60;;;8.10;99.90;;;;;;4974536;28;20119;-83
2022/03/15 09:50:57;;;;;;;39.65;25.23;;;8.20;99.90;;;;;;4975409;28;20074;-83
2022/03/15 09:53:23;;;;;;;36.88;24.65;;;8.20;99.90;;;;;;4974970;28;20456;-83
2022/03/15 09:55:49;;;;;;;39.90;24.88;;;8.30;99.90;;;;;;4974440;28;20533;-82
2022/03/15 09:58:19;;;;;;;37.58;24.77;;;8.40;99.90;;;;;;4975979;28;20501;-83
2022/03/15 10:00:49;;;;;;;37.67;23.38;;;8.50;99.90;;;;;;4976182;28;20038;-82
2022/03/15 10:03:16;;;;;;;33.85;24.25;;;8.60;99.90;;;;;;4974994;28;20070;-83
2022/03/15 10:05:42;;;;;;;37.67;23.48;;;8.80;99.90;;;;;;4987661;28;20041;-83
2022/03/15 10:08:08;;;;;;;34.83;23.42;;;8.90;99.90;;;;;;4994029;28;20046;-83
2022/03/15 10:10:34;;;;;;;34.58;21.52;;;9.00;99.90;;;;;;4993768;28;20145;-83
2022/03/15 10:12:59;;;;;;;33.58;21.67;;;9.10;99.90;;;;;;4994036;28;20125;-83
2022/03/15 10:15:25;;;;;;;34.58;22.45;;;9.10;99.90;;;;;;4993610;28;20500;-80
2022/03/15 10:18:04;;;;;;;37.42;23.15;;;9.10;99.90;;;;;;4993879;28;20452;-83
2022/03/15 10:20:38;;;;;;;37.50;23.17;;;9.20;99.90;;;;;;4993524;28;20061;-84
2022/03/15 10:23:04;;;;;;;;;;;9.20;99.90;;;;;;4994319;28;20515;-83
2022/03/15 10:25:31;;;;;;;32.55;22.20;;;9.20;99.90;;;;;;4994754;28;19918;-83
2022/03/15 10:28:00;;;;;;;38.20;22.90;;;9.20;99.90;;;;;;5002068;28;20072;-84
2022/03/15 10:30:27;;;;;;;32.63;21.77;;;9.30;99.90;;;;;;5029632;28;20050;-82
2022/03/15 10:32:54;;;;;;;33.65;21.80;;;9.30;99.90;;;;;;5014212;28;20092;-84
2022/03/15 10:35:21;;;;;;;36.58;22.45;;;9.30;99.90;;;;;;5012266;28;20042;-83
2022/03/15 10:37:47;;;;;;;36.15;23.42;;;9.30;99.90;;;;;;5012231;28;20125;-83
2022/03/15 10:40:14;;;;;;;37.90;22.27;;;9.30;99.90;;;;;;5014058;28;20045;-84
2022/03/15 10:42:41;;;;;;;33.25;22.88;;;9.30;99.90;;;;;;5014250;28;20093;-82
2022/03/15 10:45:18;;;;;;;32.15;21.67;;;9.20;99.90;;;;;;5012143;28;20050;-83
2022/03/15 10:47:52;;;;;;;37.47;22.90;;;9.10;99.90;;;;;;5011504;28;20073;-84
2022/03/15 10:50:18;;;;;;;;;;;9.10;99.90;;;;;;5011766;28;20088;-84
2022/03/15 10:52:45;;;;;;;31.70;21.33;;;9.00;99.90;;;;;;5013773;28;19921;-84
2022/03/15 10:55:19;;;;;;;39.03;22.92;;;8.90;99.90;;;;;;5013432;28;20091;-84
2022/03/15 10:57:53;;;;;;;31.40;22.48;;;8.90;99.90;;;;;;5012472;28;20553;-83
2022/03/15 11:00:22;;;;;;;38.58;23.42;;;8.90;99.90;;;;;;5028868;28;20088;-83
2022/03/15 11:02:49;;;;;;;34.38;22.65;;;8.90;99.90;;;;;;5012526;28;20042;-84
2022/03/15 11:05:30;;;;;;;37.47;23.88;;;8.80;99.90;;;;;;5013737;28;20484;-84
2022/03/15 11:07:56;;;;;;;32.92;22.95;;;8.80;99.90;;;;;;5013762;28;20132;-84
2022/03/15 11:10:23;;;;;;;31.73;20.27;;;8.80;99.90;;;;;;5012501;28;20123;-83
2022/03/15 11:13:11;;;;;;;33.45;20.98;;;8.70;99.90;;;;;;5012632;28;20555;-84
2022/03/15 11:15:40;;;;;;;29.38;19.92;;;8.70;99.90;;;;;;5028988;28;20053;-85
2022/03/15 11:18:07;;;;;;;29.88;21.75;;;8.60;99.90;;;;;;5012569;28;20065;-85
2022/03/15 11:20:36;;;;;;;34.20;21.40;;;8.60;99.90;;;;;;5013453;28;20053;-84
2022/03/15 11:23:05;;;;;;;32.25;21.35;;;8.60;99.90;;;;;;5013642;28;20042;-86
2022/03/15 11:25:37;;;;;;;36.30;22.23;;;8.50;99.90;;;;;;5013903;28;20369;-86
2022/03/15 11:28:10;;;;;;;32.05;20.92;;;8.50;99.90;;;;;;5012689;28;20046;-86
2022/03/15 11:30:36;;;;;;;35.30;22.05;;;8.50;99.90;;;;;;5013825;28;20203;-86
2022/03/15 11:33:04;;;;;;;30.70;21.23;;;8.50;99.90;;;;;;5012926;28;20133;-87
2022/03/15 11:35:32;;;;;;;36.42;22.30;;;8.50;99.90;;;;;;5013935;28;20444;-86
2022/03/15 11:38:04;;;;;;;34.63;22.60;;;8.50;99.90;;;;;;5012040;28;20408;-87
2022/03/15 11:40:31;;;;;;;31.35;22.95;;;8.50;99.90;;;;;;5012528;28;20048;-87
2022/03/15 11:43:12;;;;;;;33.95;22.83;;;8.50;99.90;;;;;;5012308;28;20041;-88
2022/03/15 11:45:59;;;;;;;36.17;22.23;;;8.50;99.90;;;;;;5014859;28;20064;-88
2022/03/15 11:48:49;;;;;;;36.47;24.27;;;8.60;99.90;;;;;;5012322;28;20092;-88
2022/03/15 11:51:33;;;;;;;41.88;24.02;;;8.60;99.90;;;;;;5013429;28;20053;-87
2022/03/15 11:54:09;;;;;;;;;;;8.70;99.90;;;;;;5012431;28;20492;-87
2022/03/15 11:56:41;;;;;;;39.05;22.88;;;8.70;99.90;;;;;;5012218;28;19932;-86
2022/03/15 11:59:06;;;;;;;36.92;23.48;;;8.80;99.90;;;;;;5012323;28;20041;-85
2022/03/15 12:01:42;;;;;;;36.95;24.55;;;8.90;99.90;;;;;;5011656;28;20053;-86
2022/03/15 12:04:10;;;;;;;35.80;24.48;;;9.00;99.90;;;;;;5011747;28;20046;-86
2022/03/15 12:06:37;;;;;;;37.65;23.98;;;9.10;99.90;;;;;;5011692;28;20063;-86
2022/03/15 12:09:12;;;;;;;35.78;23.20;;;9.20;99.90;;;;;;5011547;28;20128;-85
2022/03/15 12:11:40;;;;;;;34.55;22.83;;;9.40;99.90;;;;;;4999276;28;20047;-86
2022/03/15 12:14:12;;;;;;;36.15;22.77;;;9.50;99.90;;;;;;4987826;28;20093;-86
2022/03/15 12:16:43;;;;;;;35.28;21.90;;;9.60;99.90;;;;;;4993092;28;20030;-86
2022/03/15 12:19:15;;;;;;;31.60;20.80;;;9.80;99.90;;;;;;4993368;28;20049;-87
2022/03/15 12:22:00;;;;;;;33.70;21.30;;;10.00;99.90;;;;;;4992904;28;20432;-86
2022/03/15 12:24:40;;;;;;;31.20;19.75;;;10.10;99.90;;;;;;4992830;28;20038;-87
2022/03/15 12:27:14;;;;;;;27.33;18.45;;;10.20;99.90;;;;;;4991865;28;20097;-86
2022/03/15 12:29:53;;;;;;;25.52;17.60;;;10.30;99.90;;;;;;4992468;28;20448;-86
2022/03/15 12:32:19;;;;;;;26.55;15.93;;;10.40;99.90;;;;;;4992634;28;20069;-86
2022/03/15 12:34:51;;;;;;;23.48;17.25;;;10.50;99.90;;;;;;5007797;28;20471;-86
2022/03/15 12:37:36;;;;;;;29.65;17.70;;;10.50;99.90;;;;;;4992715;28;20041;-85
2022/03/15 12:40:09;;;;;;;29.17;16.95;;;10.60;99.90;;;;;;4992689;28;20752;-85